Brookhaven Weather

Current Time: 14:09 Zulu

HWV METARs

Local Time Temperature Dew Point Wind Direction Wind Speed Wind Gust Sky Vis.
9/19/2019 1:56:00 PM 16.1° c 6.1° c variable 4 kt - CLR 10.0 sm
9/19/2019 12:56:00 PM 15.0° c 7.2° c variable 3 kt - CLR 10.0 sm
9/19/2019 11:56:00 AM 10.6° c 7.2° c 20° 3 kt - CLR 10.0 sm
9/19/2019 10:56:00 AM 6.7° c 5.0° c variable 0 kt - CLR 10.0 sm

ISP TAF:

KISP 191341Z 1914/2012 03008KT P6SM SKC 
FM192100 17005KT P6SM SKC 
FM192300 VRB03KT P6SM SKC 
FM200400 28003KT P6SM SKC
Weather data provided by aviationweather.gov. Pilots must verify weather before flying.